sensor_id;sensor_type;location;lat;lon;timestamp;P1;durP1;ratioP1;P2;durP2;ratioP2
64917;SDS011;52176;44.858;38.372;2022-10-14T00:02:06;17.05;;;7.32;;
64917;SDS011;52176;44.858;38.372;2022-10-14T00:04:32;18.17;;;7.50;;
64917;SDS011;52176;44.858;38.372;2022-10-14T00:06:58;13.43;;;7.15;;
64917;SDS011;52176;44.858;38.372;2022-10-14T00:09:24;14.50;;;6.97;;
64917;SDS011;52176;44.858;38.372;2022-10-14T00:11:50;12.30;;;7.18;;
64917;SDS011;52176;44.858;38.372;2022-10-14T00:14:18;14.00;;;7.53;;
64917;SDS011;52176;44.858;38.372;2022-10-14T00:16:48;14.57;;;7.43;;
64917;SDS011;52176;44.858;38.372;2022-10-14T00:19:18;17.02;;;8.10;;
64917;SDS011;52176;44.858;38.372;2022-10-14T00:21:44;13.55;;;7.07;;
64917;SDS011;52176;44.858;38.372;2022-10-14T00:24:13;16.90;;;7.38;;
64917;SDS011;52176;44.858;38.372;2022-10-14T00:26:40;15.07;;;6.97;;
64917;SDS011;52176;44.858;38.372;2022-10-14T00:29:10;16.33;;;7.55;;
64917;SDS011;52176;44.858;38.372;2022-10-14T00:31:38;20.92;;;7.50;;
64917;SDS011;52176;44.858;38.372;2022-10-14T00:34:04;16.05;;;8.32;;
64917;SDS011;52176;44.858;38.372;2022-10-14T00:36:32;14.10;;;8.38;;
64917;SDS011;52176;44.858;38.372;2022-10-14T00:38:58;22.83;;;8.77;;
64917;SDS011;52176;44.858;38.372;2022-10-14T00:41:28;16.48;;;7.32;;
64917;SDS011;52176;44.858;38.372;2022-10-14T00:43:57;15.98;;;7.97;;
64917;SDS011;52176;44.858;38.372;2022-10-14T00:46:24;17.33;;;8.43;;
64917;SDS011;52176;44.858;38.372;2022-10-14T00:48:57;16.98;;;8.23;;
64917;SDS011;52176;44.858;38.372;2022-10-14T00:51:26;15.23;;;7.93;;
64917;SDS011;52176;44.858;38.372;2022-10-14T00:53:52;14.20;;;7.75;;
64917;SDS011;52176;44.858;38.372;2022-10-14T00:56:21;24.00;;;8.25;;
64917;SDS011;52176;44.858;38.372;2022-10-14T00:58:49;15.23;;;7.60;;
64917;SDS011;52176;44.858;38.372;2022-10-14T01:01:16;18.73;;;8.23;;
64917;SDS011;52176;44.858;38.372;2022-10-14T01:03:42;15.65;;;8.18;;
64917;SDS011;52176;44.858;38.372;2022-10-14T01:06:13;20.27;;;8.77;;
64917;SDS011;52176;44.858;38.372;2022-10-14T01:11:53;17.63;;;8.45;;
64917;SDS011;52176;44.858;38.372;2022-10-14T01:17:54;19.75;;;9.07;;
64917;SDS011;52176;44.858;38.372;2022-10-14T01:29:04;18.95;;;8.63;;
64917;SDS011;52176;44.858;38.372;2022-10-14T01:31:56;17.27;;;8.38;;
64917;SDS011;52176;44.858;38.372;2022-10-14T01:34:30;18.58;;;7.95;;
64917;SDS011;52176;44.858;38.372;2022-10-14T01:37:13;18.60;;;7.75;;
64917;SDS011;52176;44.858;38.372;2022-10-14T01:39:46;18.98;;;7.38;;
64917;SDS011;52176;44.858;38.372;2022-10-14T01:42:21;16.23;;;7.22;;
64917;SDS011;52176;44.858;38.372;2022-10-14T01:45:04;18.17;;;7.80;;
64917;SDS011;52176;44.858;38.372;2022-10-14T01:50:03;12.98;;;6.90;;
64917;SDS011;52176;44.858;38.372;2022-10-14T01:52:43;13.70;;;7.30;;
64917;SDS011;52176;44.858;38.372;2022-10-14T01:57:43;13.30;;;6.93;;
64917;SDS011;52176;44.858;38.372;2022-10-14T02:00:13;16.02;;;7.95;;
64917;SDS011;52176;44.858;38.372;2022-10-14T02:02:39;15.60;;;7.53;;
64917;SDS011;52176;44.858;38.372;2022-10-14T02:05:07;16.10;;;8.38;;
64917;SDS011;52176;44.858;38.372;2022-10-14T02:07:43;16.60;;;7.70;;
64917;SDS011;52176;44.858;38.372;2022-10-14T02:10:32;16.30;;;8.30;;
64917;SDS011;52176;44.858;38.372;2022-10-14T02:21:40;19.20;;;8.13;;
64917;SDS011;52176;44.858;38.372;2022-10-14T02:24:11;15.23;;;7.97;;
64917;SDS011;52176;44.858;38.372;2022-10-14T02:27:02;14.57;;;7.90;;
64917;SDS011;52176;44.858;38.372;2022-10-14T02:29:33;10.55;;;6.53;;
64917;SDS011;52176;44.858;38.372;2022-10-14T02:32:01;20.15;;;8.60;;
64917;SDS011;52176;44.858;38.372;2022-10-14T02:34:29;19.85;;;8.38;;
64917;SDS011;52176;44.858;38.372;2022-10-14T02:36:56;22.15;;;8.75;;
64917;SDS011;52176;44.858;38.372;2022-10-14T02:39:28;17.35;;;8.32;;
64917;SDS011;52176;44.858;38.372;2022-10-14T02:44:23;15.77;;;8.30;;
64917;SDS011;52176;44.858;38.372;2022-10-14T02:46:49;17.42;;;8.07;;
64917;SDS011;52176;44.858;38.372;2022-10-14T02:49:16;23.80;;;8.45;;
64917;SDS011;52176;44.858;38.372;2022-10-14T02:51:42;18.38;;;8.75;;
64917;SDS011;52176;44.858;38.372;2022-10-14T02:54:09;14.68;;;7.93;;
64917;SDS011;52176;44.858;38.372;2022-10-14T02:56:35;18.63;;;7.45;;
64917;SDS011;52176;44.858;38.372;2022-10-14T02:59:02;17.90;;;7.15;;
64917;SDS011;52176;44.858;38.372;2022-10-14T03:01:29;15.07;;;7.50;;
64917;SDS011;52176;44.858;38.372;2022-10-14T03:03:55;18.73;;;8.30;;
64917;SDS011;52176;44.858;38.372;2022-10-14T03:06:22;16.23;;;7.53;;
64917;SDS011;52176;44.858;38.372;2022-10-14T03:08:49;18.42;;;8.80;;
64917;SDS011;52176;44.858;38.372;2022-10-14T03:11:15;18.88;;;8.40;;
64917;SDS011;52176;44.858;38.372;2022-10-14T03:13:42;13.82;;;7.50;;
64917;SDS011;52176;44.858;38.372;2022-10-14T03:16:08;19.42;;;8.43;;
64917;SDS011;52176;44.858;38.372;2022-10-14T03:18:39;15.32;;;7.85;;
64917;SDS011;52176;44.858;38.372;2022-10-14T03:21:16;16.73;;;8.02;;
64917;SDS011;52176;44.858;38.372;2022-10-14T03:23:43;20.70;;;8.30;;
64917;SDS011;52176;44.858;38.372;2022-10-14T03:26:09;18.48;;;8.75;;
64917;SDS011;52176;44.858;38.372;2022-10-14T03:28:39;15.55;;;8.00;;
64917;SDS011;52176;44.858;38.372;2022-10-14T03:31:18;22.15;;;8.80;;
64917;SDS011;52176;44.858;38.372;2022-10-14T03:34:17;21.80;;;8.32;;
64917;SDS011;52176;44.858;38.372;2022-10-14T03:36:43;20.48;;;8.93;;
64917;SDS011;52176;44.858;38.372;2022-10-14T03:39:09;19.33;;;8.32;;
64917;SDS011;52176;44.858;38.372;2022-10-14T03:41:46;20.42;;;8.65;;
64917;SDS011;52176;44.858;38.372;2022-10-14T03:44:16;22.58;;;9.35;;
64917;SDS011;52176;44.858;38.372;2022-10-14T03:47:02;18.08;;;8.50;;
64917;SDS011;52176;44.858;38.372;2022-10-14T03:49:31;24.13;;;9.02;;
64917;SDS011;52176;44.858;38.372;2022-10-14T03:52:03;18.90;;;8.98;;
64917;SDS011;52176;44.858;38.372;2022-10-14T03:54:32;19.15;;;8.60;;
64917;SDS011;52176;44.858;38.372;2022-10-14T03:56:59;16.95;;;8.80;;
64917;SDS011;52176;44.858;38.372;2022-10-14T03:59:30;16.77;;;8.07;;
64917;SDS011;52176;44.858;38.372;2022-10-14T04:01:56;21.15;;;8.63;;
64917;SDS011;52176;44.858;38.372;2022-10-14T04:04:23;16.45;;;8.50;;
64917;SDS011;52176;44.858;38.372;2022-10-14T04:06:49;17.27;;;8.40;;
64917;SDS011;52176;44.858;38.372;2022-10-14T04:09:18;18.88;;;8.45;;
64917;SDS011;52176;44.858;38.372;2022-10-14T04:11:44;22.23;;;8.90;;
64917;SDS011;52176;44.858;38.372;2022-10-14T04:14:26;17.77;;;8.98;;
64917;SDS011;52176;44.858;38.372;2022-10-14T04:16:52;22.10;;;9.43;;
64917;SDS011;52176;44.858;38.372;2022-10-14T04:19:18;17.08;;;8.57;;
64917;SDS011;52176;44.858;38.372;2022-10-14T04:21:46;15.07;;;8.48;;
64917;SDS011;52176;44.858;38.372;2022-10-14T04:24:14;24.88;;;9.80;;
64917;SDS011;52176;44.858;38.372;2022-10-14T04:26:45;17.40;;;9.18;;
64917;SDS011;52176;44.858;38.372;2022-10-14T04:29:21;19.15;;;9.35;;
64917;SDS011;52176;44.858;38.372;2022-10-14T04:31:53;22.17;;;8.90;;
64917;SDS011;52176;44.858;38.372;2022-10-14T04:34:19;18.30;;;8.90;;
64917;SDS011;52176;44.858;38.372;2022-10-14T04:36:46;25.13;;;8.63;;
64917;SDS011;52176;44.858;38.372;2022-10-14T04:39:27;17.83;;;10.32;;
64917;SDS011;52176;44.858;38.372;2022-10-14T04:41:54;24.77;;;9.65;;
64917;SDS011;52176;44.858;38.372;2022-10-14T04:44:21;17.45;;;10.05;;
64917;SDS011;52176;44.858;38.372;2022-10-14T04:46:51;21.38;;;10.15;;
64917;SDS011;52176;44.858;38.372;2022-10-14T04:49:20;21.30;;;9.38;;
64917;SDS011;52176;44.858;38.372;2022-10-14T04:51:59;23.73;;;9.20;;
64917;SDS011;52176;44.858;38.372;2022-10-14T04:54:41;23.20;;;9.27;;
64917;SDS011;52176;44.858;38.372;2022-10-14T04:57:07;26.20;;;10.00;;
64917;SDS011;52176;44.858;38.372;2022-10-14T04:59:36;26.50;;;9.88;;
64917;SDS011;52176;44.858;38.372;2022-10-14T05:02:19;21.67;;;8.77;;
64917;SDS011;52176;44.858;38.372;2022-10-14T05:04:50;23.05;;;10.02;;
64917;SDS011;52176;44.858;38.372;2022-10-14T05:07:16;24.48;;;10.30;;
64917;SDS011;52176;44.858;38.372;2022-10-14T05:09:44;21.70;;;9.90;;
64917;SDS011;52176;44.858;38.372;2022-10-14T05:12:21;25.88;;;10.88;;
64917;SDS011;52176;44.858;38.372;2022-10-14T05:14:52;18.67;;;9.80;;
64917;SDS011;52176;44.858;38.372;2022-10-14T05:17:26;23.80;;;11.07;;
64917;SDS011;52176;44.858;38.372;2022-10-14T05:19:52;23.90;;;11.48;;
64917;SDS011;52176;44.858;38.372;2022-10-14T05:22:21;24.77;;;10.98;;
64917;SDS011;52176;44.858;38.372;2022-10-14T05:24:48;19.85;;;10.57;;
64917;SDS011;52176;44.858;38.372;2022-10-14T05:27:14;29.35;;;10.27;;
64917;SDS011;52176;44.858;38.372;2022-10-14T05:29:41;27.35;;;10.93;;
64917;SDS011;52176;44.858;38.372;2022-10-14T05:32:08;22.00;;;10.32;;
64917;SDS011;52176;44.858;38.372;2022-10-14T05:34:41;22.50;;;10.88;;
64917;SDS011;52176;44.858;38.372;2022-10-14T05:37:12;22.20;;;10.50;;
64917;SDS011;52176;44.858;38.372;2022-10-14T05:39:44;22.92;;;10.18;;
64917;SDS011;52176;44.858;38.372;2022-10-14T05:42:11;24.73;;;10.43;;
64917;SDS011;52176;44.858;38.372;2022-10-14T05:44:39;20.00;;;10.23;;
64917;SDS011;52176;44.858;38.372;2022-10-14T05:47:06;20.17;;;10.23;;
64917;SDS011;52176;44.858;38.372;2022-10-14T05:49:33;24.77;;;10.20;;
64917;SDS011;52176;44.858;38.372;2022-10-14T05:52:02;26.40;;;11.95;;
64917;SDS011;52176;44.858;38.372;2022-10-14T05:54:30;25.80;;;10.95;;
64917;SDS011;52176;44.858;38.372;2022-10-14T05:56:56;19.73;;;10.07;;
64917;SDS011;52176;44.858;38.372;2022-10-14T05:59:23;20.70;;;10.80;;
64917;SDS011;52176;44.858;38.372;2022-10-14T06:18:56;20.80;;;10.88;;
64917;SDS011;52176;44.858;38.372;2022-10-14T06:21:22;21.02;;;11.18;;
64917;SDS011;52176;44.858;38.372;2022-10-14T06:23:49;26.85;;;10.88;;
64917;SDS011;52176;44.858;38.372;2022-10-14T06:26:15;25.73;;;10.63;;
64917;SDS011;52176;44.858;38.372;2022-10-14T06:28:41;25.48;;;11.10;;
64917;SDS011;52176;44.858;38.372;2022-10-14T06:31:07;18.48;;;10.05;;
64917;SDS011;52176;44.858;38.372;2022-10-14T06:33:33;19.70;;;11.07;;
64917;SDS011;52176;44.858;38.372;2022-10-14T06:36:02;20.40;;;11.43;;
64917;SDS011;52176;44.858;38.372;2022-10-14T06:40:55;19.70;;;11.00;;
64917;SDS011;52176;44.858;38.372;2022-10-14T15:33:24;84.00;;;33.70;;
64917;SDS011;52176;44.858;38.372;2022-10-14T15:35:56;81.15;;;32.78;;
64917;SDS011;52176;44.858;38.372;2022-10-14T15:38:24;74.38;;;32.22;;
64917;SDS011;52176;44.858;38.372;2022-10-14T15:40:51;84.07;;;30.77;;
64917;SDS011;52176;44.858;38.372;2022-10-14T15:43:23;79.35;;;26.67;;
64917;SDS011;52176;44.858;38.372;2022-10-14T15:55:58;21.35;;;10.40;;
64917;SDS011;52176;44.858;38.372;2022-10-14T15:58:25;34.85;;;10.02;;
64917;SDS011;52176;44.858;38.372;2022-10-14T16:00:51;20.77;;;8.88;;
64917;SDS011;52176;44.858;38.372;2022-10-14T16:03:17;17.90;;;7.70;;
64917;SDS011;52176;44.858;38.372;2022-10-14T16:05:44;18.20;;;6.88;;
64917;SDS011;52176;44.858;38.372;2022-10-14T16:08:12;14.10;;;6.55;;
64917;SDS011;52176;44.858;38.372;2022-10-14T16:10:41;19.50;;;6.75;;
64917;SDS011;52176;44.858;38.372;2022-10-14T16:13:12;15.20;;;6.20;;
64917;SDS011;52176;44.858;38.372;2022-10-14T16:18:21;26.33;;;8.85;;
64917;SDS011;52176;44.858;38.372;2022-10-14T16:20:53;18.65;;;7.68;;
64917;SDS011;52176;44.858;38.372;2022-10-14T16:23:20;19.85;;;8.48;;
64917;SDS011;52176;44.858;38.372;2022-10-14T16:25:49;43.38;;;16.05;;
64917;SDS011;52176;44.858;38.372;2022-10-14T16:28:16;73.38;;;21.40;;
64917;SDS011;52176;44.858;38.372;2022-10-14T16:30:44;78.53;;;29.08;;
64917;SDS011;52176;44.858;38.372;2022-10-14T16:33:15;75.53;;;28.67;;
64917;SDS011;52176;44.858;38.372;2022-10-14T16:35:42;72.55;;;27.58;;
64917;SDS011;52176;44.858;38.372;2022-10-14T16:38:11;80.22;;;27.20;;
64917;SDS011;52176;44.858;38.372;2022-10-14T16:40:37;62.78;;;25.42;;
64917;SDS011;52176;44.858;38.372;2022-10-14T16:43:04;61.08;;;24.55;;
64917;SDS011;52176;44.858;38.372;2022-10-14T16:45:30;74.65;;;26.80;;
64917;SDS011;52176;44.858;38.372;2022-10-14T16:47:56;60.22;;;26.00;;
64917;SDS011;52176;44.858;38.372;2022-10-14T16:50:22;66.68;;;28.63;;
64917;SDS011;52176;44.858;38.372;2022-10-14T16:52:48;74.78;;;27.60;;
64917;SDS011;52176;44.858;38.372;2022-10-14T16:55:33;74.25;;;28.65;;
64917;SDS011;52176;44.858;38.372;2022-10-14T16:57:59;66.70;;;29.17;;
64917;SDS011;52176;44.858;38.372;2022-10-14T17:00:25;68.32;;;26.77;;
64917;SDS011;52176;44.858;38.372;2022-10-14T17:02:51;60.10;;;26.13;;
64917;SDS011;52176;44.858;38.372;2022-10-14T17:05:19;60.45;;;27.98;;
64917;SDS011;52176;44.858;38.372;2022-10-14T17:07:45;80.88;;;28.10;;
64917;SDS011;52176;44.858;38.372;2022-10-14T17:10:11;77.57;;;29.52;;
64917;SDS011;52176;44.858;38.372;2022-10-14T17:12:37;66.35;;;28.88;;
64917;SDS011;52176;44.858;38.372;2022-10-14T17:15:04;75.28;;;29.23;;
64917;SDS011;52176;44.858;38.372;2022-10-14T17:17:30;81.97;;;28.38;;
64917;SDS011;52176;44.858;38.372;2022-10-14T17:19:57;68.25;;;27.55;;
64917;SDS011;52176;44.858;38.372;2022-10-14T17:22:23;56.60;;;26.63;;
64917;SDS011;52176;44.858;38.372;2022-10-14T17:24:49;65.07;;;27.15;;
64917;SDS011;52176;44.858;38.372;2022-10-14T17:27:15;59.90;;;25.55;;
64917;SDS011;52176;44.858;38.372;2022-10-14T17:29:45;48.03;;;22.75;;
64917;SDS011;52176;44.858;38.372;2022-10-14T17:32:11;46.13;;;20.98;;
64917;SDS011;52176;44.858;38.372;2022-10-14T17:34:37;53.50;;;19.52;;
64917;SDS011;52176;44.858;38.372;2022-10-14T17:37:04;64.35;;;20.52;;
64917;SDS011;52176;44.858;38.372;2022-10-14T17:39:32;33.20;;;19.35;;
64917;SDS011;52176;44.858;38.372;2022-10-14T17:41:58;42.10;;;20.13;;
64917;SDS011;52176;44.858;38.372;2022-10-14T17:44:25;41.05;;;18.17;;
64917;SDS011;52176;44.858;38.372;2022-10-14T17:46:53;41.53;;;18.45;;
64917;SDS011;52176;44.858;38.372;2022-10-14T17:49:19;43.20;;;19.88;;
64917;SDS011;52176;44.858;38.372;2022-10-14T17:51:47;48.17;;;18.13;;
64917;SDS011;52176;44.858;38.372;2022-10-14T17:54:13;38.53;;;18.90;;
64917;SDS011;52176;44.858;38.372;2022-10-14T17:56:39;39.38;;;18.15;;
64917;SDS011;52176;44.858;38.372;2022-10-14T17:59:06;39.05;;;17.92;;
64917;SDS011;52176;44.858;38.372;2022-10-14T18:01:34;35.85;;;18.00;;
64917;SDS011;52176;44.858;38.372;2022-10-14T18:04:01;40.92;;;17.10;;
64917;SDS011;52176;44.858;38.372;2022-10-14T18:06:31;42.05;;;17.38;;
64917;SDS011;52176;44.858;38.372;2022-10-14T18:08:59;47.25;;;17.17;;
64917;SDS011;52176;44.858;38.372;2022-10-14T18:11:29;37.47;;;16.30;;
64917;SDS011;52176;44.858;38.372;2022-10-14T18:13:57;45.50;;;17.55;;
64917;SDS011;52176;44.858;38.372;2022-10-14T18:16:28;44.75;;;16.67;;
64917;SDS011;52176;44.858;38.372;2022-10-14T18:19:02;42.42;;;16.52;;
64917;SDS011;52176;44.858;38.372;2022-10-14T18:21:30;36.35;;;15.35;;
64917;SDS011;52176;44.858;38.372;2022-10-14T18:23:58;27.85;;;15.65;;
64917;SDS011;52176;44.858;38.372;2022-10-14T18:26:24;33.97;;;16.27;;
64917;SDS011;52176;44.858;38.372;2022-10-14T18:28:56;39.20;;;18.23;;
64917;SDS011;52176;44.858;38.372;2022-10-14T18:31:26;44.75;;;20.33;;
64917;SDS011;52176;44.858;38.372;2022-10-14T18:33:54;41.55;;;18.45;;
64917;SDS011;52176;44.858;38.372;2022-10-14T18:36:23;33.97;;;16.95;;
64917;SDS011;52176;44.858;38.372;2022-10-14T18:38:52;35.90;;;17.08;;
64917;SDS011;52176;44.858;38.372;2022-10-14T18:41:20;43.40;;;15.57;;
64917;SDS011;52176;44.858;38.372;2022-10-14T18:43:47;32.60;;;14.90;;
64917;SDS011;52176;44.858;38.372;2022-10-14T18:46:15;34.03;;;14.23;;
64917;SDS011;52176;44.858;38.372;2022-10-14T18:48:42;31.25;;;13.63;;
64917;SDS011;52176;44.858;38.372;2022-10-14T18:51:11;26.45;;;13.60;;
64917;SDS011;52176;44.858;38.372;2022-10-14T18:53:40;24.85;;;12.38;;
64917;SDS011;52176;44.858;38.372;2022-10-14T18:56:14;28.77;;;13.43;;
64917;SDS011;52176;44.858;38.372;2022-10-14T18:58:42;30.35;;;12.60;;
64917;SDS011;52176;44.858;38.372;2022-10-14T19:01:09;24.50;;;11.60;;
64917;SDS011;52176;44.858;38.372;2022-10-14T19:03:36;26.10;;;12.13;;
64917;SDS011;52176;44.858;38.372;2022-10-14T19:06:04;24.13;;;11.07;;
64917;SDS011;52176;44.858;38.372;2022-10-14T19:08:32;22.35;;;11.32;;
64917;SDS011;52176;44.858;38.372;2022-10-14T19:11:00;23.75;;;10.95;;
64917;SDS011;52176;44.858;38.372;2022-10-14T19:13:28;19.67;;;10.63;;
64917;SDS011;52176;44.858;38.372;2022-10-14T19:18:33;39.85;;;17.88;;
64917;SDS011;52176;44.858;38.372;2022-10-14T19:21:04;39.35;;;18.42;;
64917;SDS011;52176;44.858;38.372;2022-10-14T19:23:33;24.53;;;11.60;;
64917;SDS011;52176;44.858;38.372;2022-10-14T19:26:04;35.45;;;15.85;;
64917;SDS011;52176;44.858;38.372;2022-10-14T19:31:06;27.58;;;14.38;;
64917;SDS011;52176;44.858;38.372;2022-10-14T19:33:37;27.25;;;14.48;;
64917;SDS011;52176;44.858;38.372;2022-10-14T19:36:05;24.92;;;12.75;;
64917;SDS011;52176;44.858;38.372;2022-10-14T19:38:32;35.40;;;12.32;;
64917;SDS011;52176;44.858;38.372;2022-10-14T19:40:59;26.58;;;12.20;;
64917;SDS011;52176;44.858;38.372;2022-10-14T19:43:26;30.80;;;13.00;;
64917;SDS011;52176;44.858;38.372;2022-10-14T19:45:53;23.88;;;12.93;;
64917;SDS011;52176;44.858;38.372;2022-10-14T19:48:19;33.10;;;14.38;;
64917;SDS011;52176;44.858;38.372;2022-10-14T19:50:45;34.90;;;14.68;;
64917;SDS011;52176;44.858;38.372;2022-10-14T19:53:11;32.22;;;14.02;;
64917;SDS011;52176;44.858;38.372;2022-10-14T19:55:37;32.65;;;13.95;;
64917;SDS011;52176;44.858;38.372;2022-10-14T19:58:03;37.65;;;13.55;;
64917;SDS011;52176;44.858;38.372;2022-10-14T20:00:30;33.17;;;13.52;;
64917;SDS011;52176;44.858;38.372;2022-10-14T20:02:56;42.17;;;12.13;;
64917;SDS011;52176;44.858;38.372;2022-10-14T20:05:22;25.67;;;11.68;;
64917;SDS011;52176;44.858;38.372;2022-10-14T20:07:49;30.77;;;11.80;;
64917;SDS011;52176;44.858;38.372;2022-10-14T20:10:15;24.73;;;11.57;;
64917;SDS011;52176;44.858;38.372;2022-10-14T20:12:41;26.33;;;12.07;;
64917;SDS011;52176;44.858;38.372;2022-10-14T20:15:07;28.27;;;12.50;;
64917;SDS011;52176;44.858;38.372;2022-10-14T20:17:33;25.60;;;11.23;;
64917;SDS011;52176;44.858;38.372;2022-10-14T20:19:59;28.88;;;11.40;;
64917;SDS011;52176;44.858;38.372;2022-10-14T20:22:25;32.97;;;11.43;;
64917;SDS011;52176;44.858;38.372;2022-10-14T20:24:51;21.73;;;10.65;;
64917;SDS011;52176;44.858;38.372;2022-10-14T20:27:17;23.60;;;10.50;;
64917;SDS011;52176;44.858;38.372;2022-10-14T20:29:43;26.27;;;11.15;;
64917;SDS011;52176;44.858;38.372;2022-10-14T20:32:09;25.65;;;10.05;;
64917;SDS011;52176;44.858;38.372;2022-10-14T20:34:35;19.63;;;10.50;;
64917;SDS011;52176;44.858;38.372;2022-10-14T20:37:01;24.63;;;10.38;;
64917;SDS011;52176;44.858;38.372;2022-10-14T20:39:28;25.10;;;9.80;;
64917;SDS011;52176;44.858;38.372;2022-10-14T20:41:54;18.40;;;9.45;;
64917;SDS011;52176;44.858;38.372;2022-10-14T20:44:20;26.23;;;10.00;;
64917;SDS011;52176;44.858;38.372;2022-10-14T20:46:47;33.63;;;9.52;;
64917;SDS011;52176;44.858;38.372;2022-10-14T20:49:13;16.48;;;9.32;;
64917;SDS011;52176;44.858;38.372;2022-10-14T20:51:40;30.00;;;9.95;;
64917;SDS011;52176;44.858;38.372;2022-10-14T20:54:07;22.58;;;8.52;;
64917;SDS011;52176;44.858;38.372;2022-10-14T20:56:33;30.30;;;8.38;;
64917;SDS011;52176;44.858;38.372;2022-10-14T20:59:04;20.92;;;8.77;;
64917;SDS011;52176;44.858;38.372;2022-10-14T21:01:32;18.70;;;9.00;;
64917;SDS011;52176;44.858;38.372;2022-10-14T21:04:00;15.02;;;8.98;;
64917;SDS011;52176;44.858;38.372;2022-10-14T21:06:27;15.90;;;8.88;;
64917;SDS011;52176;44.858;38.372;2022-10-14T21:08:54;18.67;;;8.88;;
64917;SDS011;52176;44.858;38.372;2022-10-14T21:11:21;18.33;;;9.10;;
64917;SDS011;52176;44.858;38.372;2022-10-14T21:13:49;17.73;;;8.88;;
64917;SDS011;52176;44.858;38.372;2022-10-14T21:18:56;22.73;;;9.18;;
64917;SDS011;52176;44.858;38.372;2022-10-14T21:21:25;18.75;;;9.23;;
64917;SDS011;52176;44.858;38.372;2022-10-14T21:23:53;30.15;;;8.75;;
64917;SDS011;52176;44.858;38.372;2022-10-14T21:26:19;20.08;;;8.93;;
64917;SDS011;52176;44.858;38.372;2022-10-14T21:28:45;23.67;;;8.73;;
64917;SDS011;52176;44.858;38.372;2022-10-14T21:31:12;18.95;;;9.35;;
64917;SDS011;52176;44.858;38.372;2022-10-14T21:33:39;20.55;;;9.35;;
64917;SDS011;52176;44.858;38.372;2022-10-14T21:36:09;18.48;;;9.63;;
64917;SDS011;52176;44.858;38.372;2022-10-14T21:38:37;19.35;;;9.18;;
64917;SDS011;52176;44.858;38.372;2022-10-14T21:41:04;17.48;;;8.02;;
64917;SDS011;52176;44.858;38.372;2022-10-14T21:43:32;16.52;;;8.45;;
64917;SDS011;52176;44.858;38.372;2022-10-14T21:46:00;22.08;;;8.25;;
64917;SDS011;52176;44.858;38.372;2022-10-14T21:48:27;14.75;;;7.93;;
64917;SDS011;52176;44.858;38.372;2022-10-14T21:51:00;18.05;;;8.82;;
64917;SDS011;52176;44.858;38.372;2022-10-14T21:55:54;15.95;;;7.50;;
64917;SDS011;52176;44.858;38.372;2022-10-14T21:58:20;14.38;;;7.82;;
64917;SDS011;52176;44.858;38.372;2022-10-14T22:00:46;23.13;;;7.25;;
64917;SDS011;52176;44.858;38.372;2022-10-14T22:03:12;17.15;;;7.18;;
64917;SDS011;52176;44.858;38.372;2022-10-14T22:05:38;14.52;;;7.22;;
64917;SDS011;52176;44.858;38.372;2022-10-14T22:08:05;14.55;;;7.70;;
64917;SDS011;52176;44.858;38.372;2022-10-14T22:10:31;19.02;;;7.47;;
64917;SDS011;52176;44.858;38.372;2022-10-14T22:13:06;14.73;;;7.70;;
64917;SDS011;52176;44.858;38.372;2022-10-14T22:15:33;19.75;;;8.13;;
64917;SDS011;52176;44.858;38.372;2022-10-14T22:18:00;16.00;;;8.43;;
64917;SDS011;52176;44.858;38.372;2022-10-14T22:20:26;17.80;;;7.30;;
64917;SDS011;52176;44.858;38.372;2022-10-14T22:22:52;13.43;;;7.43;;
64917;SDS011;52176;44.858;38.372;2022-10-14T22:25:18;16.60;;;7.32;;
64917;SDS011;52176;44.858;38.372;2022-10-14T22:27:44;18.70;;;8.05;;
64917;SDS011;52176;44.858;38.372;2022-10-14T22:30:11;20.45;;;8.05;;
64917;SDS011;52176;44.858;38.372;2022-10-14T22:32:37;17.75;;;7.70;;
64917;SDS011;52176;44.858;38.372;2022-10-14T22:35:03;17.30;;;8.32;;
64917;SDS011;52176;44.858;38.372;2022-10-14T22:37:30;15.60;;;7.15;;
64917;SDS011;52176;44.858;38.372;2022-10-14T22:39:56;21.15;;;8.80;;
64917;SDS011;52176;44.858;38.372;2022-10-14T22:42:22;23.13;;;8.98;;
64917;SDS011;52176;44.858;38.372;2022-10-14T22:44:48;20.42;;;8.05;;
64917;SDS011;52176;44.858;38.372;2022-10-14T22:47:14;24.05;;;9.27;;
64917;SDS011;52176;44.858;38.372;2022-10-14T22:49:40;18.38;;;7.88;;
64917;SDS011;52176;44.858;38.372;2022-10-14T22:52:06;20.42;;;8.02;;
64917;SDS011;52176;44.858;38.372;2022-10-14T22:54:32;23.73;;;8.43;;
64917;SDS011;52176;44.858;38.372;2022-10-14T22:56:58;21.02;;;7.75;;
64917;SDS011;52176;44.858;38.372;2022-10-14T22:59:24;11.88;;;7.38;;
64917;SDS011;52176;44.858;38.372;2022-10-14T23:01:50;18.40;;;7.40;;
64917;SDS011;52176;44.858;38.372;2022-10-14T23:04:16;16.42;;;7.72;;
64917;SDS011;52176;44.858;38.372;2022-10-14T23:06:42;20.38;;;6.88;;
64917;SDS011;52176;44.858;38.372;2022-10-14T23:09:13;14.80;;;7.18;;
64917;SDS011;52176;44.858;38.372;2022-10-14T23:11:39;13.98;;;6.93;;
64917;SDS011;52176;44.858;38.372;2022-10-14T23:14:05;18.20;;;7.45;;
64917;SDS011;52176;44.858;38.372;2022-10-14T23:16:31;12.00;;;6.68;;
64917;SDS011;52176;44.858;38.372;2022-10-14T23:18:58;12.13;;;6.03;;
64917;SDS011;52176;44.858;38.372;2022-10-14T23:21:28;11.18;;;5.55;;
64917;SDS011;52176;44.858;38.372;2022-10-14T23:23:56;16.90;;;6.63;;
64917;SDS011;52176;44.858;38.372;2022-10-14T23:26:25;21.05;;;6.95;;
64917;SDS011;52176;44.858;38.372;2022-10-14T23:28:53;12.68;;;6.65;;
64917;SDS011;52176;44.858;38.372;2022-10-14T23:31:21;15.68;;;6.75;;
64917;SDS011;52176;44.858;38.372;2022-10-14T23:33:48;11.63;;;6.28;;
64917;SDS011;52176;44.858;38.372;2022-10-14T23:36:17;15.30;;;7.03;;
64917;SDS011;52176;44.858;38.372;2022-10-14T23:38:43;10.02;;;5.63;;
64917;SDS011;52176;44.858;38.372;2022-10-14T23:41:10;13.30;;;6.75;;
64917;SDS011;52176;44.858;38.372;2022-10-14T23:43:38;11.20;;;6.15;;
64917;SDS011;52176;44.858;38.372;2022-10-14T23:46:04;12.02;;;6.25;;
64917;SDS011;52176;44.858;38.372;2022-10-14T23:48:31;11.82;;;6.28;;
64917;SDS011;52176;44.858;38.372;2022-10-14T23:50:58;14.82;;;5.82;;
64917;SDS011;52176;44.858;38.372;2022-10-14T23:53:24;14.27;;;5.95;;
64917;SDS011;52176;44.858;38.372;2022-10-14T23:55:51;12.35;;;5.55;;
64917;SDS011;52176;44.858;38.372;2022-10-14T23:58:18;14.02;;;5.97;;
